Aviation Digital Data Service (ADDS)

Output produced by METARs form (1044 UTC 17 June 2019)
found at http://www.aviationweather.gov/metar/data/
 
Forecast for: WMKM (MALACCA , MY)
Text: TAF WMKM 170500Z 1706/1806 16005KT 9999 FEW017CB
Forecast period: 0600 to 1000 UTC 17 June 2019
Forecast type: FROM: standard forecast or significant change
Winds: from the SSE (160 degrees) at 6 MPH (5 knots; 2.6 m/s)
Visibility: 6 or more miles 10+ km)
Ceiling: at least 12,000 feet AGL
Clouds: few clouds at 1700 feet AGL
Weather: no significant weather forecast for this period
Text: BECMG 1710/1712 VRB02KT FEW028
Forecast period: 1000 UTC 17 June 2019 to 0600 UTC 18 June 2019
Forecast type: BECOMING: Conditions expected to become as follows by 1200 UTC 17 June 2019
Winds: variable direction winds at 2 MPH (2 knots; 1.0 m/s)
Visibility: 6 or more miles 10+ km)
Ceiling: at least 12,000 feet AGL
Clouds: few clouds at 2800 feet AGL
Weather: no significant weather forecast for this period
Text: TEMPO 1719/1723 11007KT 4000 TSRA FEW010 FEW016CB SCT020
Forecast period: 1900 to 2300 UTC 17 June 2019
Forecast type: TEMPORARY: The following changes expected for less than half the time period
Winds: from the ESE (110 degrees) at 8 MPH (7 knots; 3.6 m/s)
Visibility: 2.49 miles (4.01 km)
Ceiling: at least 12,000 feet AGL
Clouds: few clouds at 1000 feet AGL
few clouds at 1600 feet AGL
scattered clouds at 2000 feet AGL
Weather: TSRA  (rain associated with thunderstorm(s))